Blooming Grove, New York
Current Conditions -  °F | °C
As of 7:45 AM on Tuesday 21 Oct 2014 (Local Time) from KSWF Reporting Station
Overcast Overcast  
Wind Chill: 50°   Ceiling: 5000
Heat Index: 50°   Visibility: 10mi
Dew Point: 48°   Wind: 6mph
Humidity: 94%   Direction: NA
Pressure: 29.9"   Gusts: NA
Location:  41.41°N, 74.19°W
Report Text: KSWF 211145Z VRB05KT 10SM OVC050 10/09 A2990
Loading
Personal Weather Stations






























Interactive Weather Map
Tropical Storm Tracking
New forecast layout! Learn more

10-Day Weather Forecast

Advertisements
Track Severe Weather on mobile